sensor_id;sensor_type;location;lat;lon;timestamp;pressure;altitude;pressure_sealevel;temperature;humidity
45078;BME280;60508;42.622;25.416;2022-10-17T00:01:48;98074.31;;;9.84;48.73
45078;BME280;60508;42.622;25.416;2022-10-17T00:04:13;98078.84;;;10.03;48.35
45078;BME280;60508;42.622;25.416;2022-10-17T00:06:39;98078.41;;;10.07;48.39
45078;BME280;60508;42.622;25.416;2022-10-17T00:09:05;98077.81;;;10.04;48.83
45078;BME280;60508;42.622;25.416;2022-10-17T00:11:32;98079.03;;;10.09;48.59
45078;BME280;60508;42.622;25.416;2022-10-17T00:13:58;98094.09;;;9.90;50.14
45078;BME280;60508;42.622;25.416;2022-10-17T00:16:29;98083.38;;;9.90;49.82
45078;BME280;60508;42.622;25.416;2022-10-17T00:18:57;98087.31;;;9.87;49.38
45078;BME280;60508;42.622;25.416;2022-10-17T00:21:24;98092.47;;;9.95;48.96
45078;BME280;60508;42.622;25.416;2022-10-17T00:23:51;98091.81;;;10.20;47.75
45078;BME280;60508;42.622;25.416;2022-10-17T00:26:19;98081.94;;;9.87;48.55
45078;BME280;60508;42.622;25.416;2022-10-17T00:28:47;98090.63;;;9.76;49.16
45078;BME280;60508;42.622;25.416;2022-10-17T00:31:14;98092.44;;;9.55;50.23
45078;BME280;60508;42.622;25.416;2022-10-17T00:33:41;98087.88;;;9.49;50.96
45078;BME280;60508;42.622;25.416;2022-10-17T00:36:14;98091.63;;;9.48;51.16
45078;BME280;60508;42.622;25.416;2022-10-17T00:38:44;98099.88;;;9.66;50.00
45078;BME280;60508;42.622;25.416;2022-10-17T00:41:13;98095.34;;;9.60;50.59
45078;BME280;60508;42.622;25.416;2022-10-17T00:46:28;98086.06;;;9.69;51.29
45078;BME280;60508;42.622;25.416;2022-10-17T00:48:56;98087.44;;;9.25;51.93
45078;BME280;60508;42.622;25.416;2022-10-17T00:51:53;98087.56;;;9.04;53.01
45078;BME280;60508;42.622;25.416;2022-10-17T00:54:24;98090.22;;;8.90;53.79
45078;BME280;60508;42.622;25.416;2022-10-17T00:56:52;98098.88;;;8.92;53.78
45078;BME280;60508;42.622;25.416;2022-10-17T00:59:20;98096.44;;;9.04;53.78
45078;BME280;60508;42.622;25.416;2022-10-17T01:01:53;98100.69;;;8.79;54.36
45078;BME280;60508;42.622;25.416;2022-10-17T01:04:21;98109.19;;;8.89;54.44
45078;BME280;60508;42.622;25.416;2022-10-17T01:06:47;98105.47;;;8.90;55.03
45078;BME280;60508;42.622;25.416;2022-10-17T01:09:14;98111.28;;;9.00;54.44
45078;BME280;60508;42.622;25.416;2022-10-17T01:11:51;98106.13;;;9.05;54.34
45078;BME280;60508;42.622;25.416;2022-10-17T01:22:41;98104.25;;;8.92;54.71
45078;BME280;60508;42.622;25.416;2022-10-17T01:25:28;98102.25;;;8.59;55.89
45078;BME280;60508;42.622;25.416;2022-10-17T01:31:15;98097.69;;;8.60;55.79
45078;BME280;60508;42.622;25.416;2022-10-17T01:34:03;98094.44;;;8.36;56.54
45078;BME280;60508;42.622;25.416;2022-10-17T01:42:22;98090.47;;;7.97;57.20
45078;BME280;60508;42.622;25.416;2022-10-17T01:45:15;98101.81;;;8.28;56.01
45078;BME280;60508;42.622;25.416;2022-10-17T01:47:45;98099.41;;;8.39;55.71
45078;BME280;60508;42.622;25.416;2022-10-17T01:50:18;98086.84;;;8.40;55.41
45078;BME280;60508;42.622;25.416;2022-10-17T01:53:03;98099.91;;;8.50;55.23
45078;BME280;60508;42.622;25.416;2022-10-17T01:55:40;98104.53;;;8.63;54.52
45078;BME280;60508;42.622;25.416;2022-10-17T01:58:11;98100.59;;;8.65;54.26
45078;BME280;60508;42.622;25.416;2022-10-17T02:00:39;98107.31;;;8.48;54.71
45078;BME280;60508;42.622;25.416;2022-10-17T02:03:10;98108.78;;;8.22;55.32
45078;BME280;60508;42.622;25.416;2022-10-17T02:05:39;98114.19;;;8.29;55.38
45078;BME280;60508;42.622;25.416;2022-10-17T02:08:06;98107.16;;;8.28;55.42
45078;BME280;60508;42.622;25.416;2022-10-17T02:19:22;98116.09;;;8.35;54.49
45078;BME280;60508;42.622;25.416;2022-10-17T02:25:02;98120.94;;;8.25;55.08
45078;BME280;60508;42.622;25.416;2022-10-17T02:27:46;98121.47;;;8.41;54.04
45078;BME280;60508;42.622;25.416;2022-10-17T02:30:30;98124.84;;;8.50;54.44
45078;BME280;60508;42.622;25.416;2022-10-17T02:35:39;98115.34;;;8.89;52.57
45078;BME280;60508;42.622;25.416;2022-10-17T02:38:07;98112.69;;;8.89;53.04
45078;BME280;60508;42.622;25.416;2022-10-17T02:40:36;98114.75;;;8.87;52.39
45078;BME280;60508;42.622;25.416;2022-10-17T02:43:03;98117.22;;;8.89;52.42
45078;BME280;60508;42.622;25.416;2022-10-17T02:45:29;98127.72;;;8.84;52.88
45078;BME280;60508;42.622;25.416;2022-10-17T02:48:22;98137.19;;;8.86;52.53
45078;BME280;60508;42.622;25.416;2022-10-17T02:51:06;98140.50;;;8.47;54.13
45078;BME280;60508;42.622;25.416;2022-10-17T02:53:56;98136.19;;;8.52;54.42
45078;BME280;60508;42.622;25.416;2022-10-17T02:56:30;98138.69;;;8.61;54.20
45078;BME280;60508;42.622;25.416;2022-10-17T02:59:00;98131.81;;;8.80;53.25
45078;BME280;60508;42.622;25.416;2022-10-17T03:01:29;98131.38;;;8.76;53.90
45078;BME280;60508;42.622;25.416;2022-10-17T03:04:10;98129.75;;;8.82;53.18
45078;BME280;60508;42.622;25.416;2022-10-17T03:06:36;98122.19;;;8.57;54.03
45078;BME280;60508;42.622;25.416;2022-10-17T03:09:02;98113.13;;;8.30;54.84
45078;BME280;60508;42.622;25.416;2022-10-17T03:11:29;98127.03;;;8.12;56.03
45078;BME280;60508;42.622;25.416;2022-10-17T03:13:55;98119.53;;;8.29;56.28
45078;BME280;60508;42.622;25.416;2022-10-17T03:16:21;98119.06;;;8.25;55.69
45078;BME280;60508;42.622;25.416;2022-10-17T03:18:47;98128.13;;;8.17;55.90
45078;BME280;60508;42.622;25.416;2022-10-17T03:21:14;98116.28;;;8.05;56.04
45078;BME280;60508;42.622;25.416;2022-10-17T03:23:39;98138.59;;;8.12;55.73
45078;BME280;60508;42.622;25.416;2022-10-17T03:26:07;98146.09;;;8.23;55.45
45078;BME280;60508;42.622;25.416;2022-10-17T03:28:34;98137.75;;;8.40;55.08
45078;BME280;60508;42.622;25.416;2022-10-17T03:31:12;98105.09;;;7.95;56.20
45078;BME280;60508;42.622;25.416;2022-10-17T03:33:39;98082.28;;;7.77;57.54
45078;BME280;60508;42.622;25.416;2022-10-17T03:36:07;98089.38;;;8.20;57.95
45078;BME280;60508;42.622;25.416;2022-10-17T03:38:34;98105.72;;;8.53;57.12
45078;BME280;60508;42.622;25.416;2022-10-17T03:41:01;98109.53;;;8.79;54.85
45078;BME280;60508;42.622;25.416;2022-10-17T03:43:27;98112.16;;;8.66;54.62
45078;BME280;60508;42.622;25.416;2022-10-17T03:45:53;98116.69;;;8.65;54.11
45078;BME280;60508;42.622;25.416;2022-10-17T03:48:20;98135.00;;;8.62;54.56
45078;BME280;60508;42.622;25.416;2022-10-17T03:50:46;98137.53;;;8.70;53.56
45078;BME280;60508;42.622;25.416;2022-10-17T03:53:13;98151.25;;;8.53;54.27
45078;BME280;60508;42.622;25.416;2022-10-17T03:55:39;98144.88;;;8.54;54.67
45078;BME280;60508;42.622;25.416;2022-10-17T03:58:05;98142.31;;;8.74;54.00
45078;BME280;60508;42.622;25.416;2022-10-17T04:00:31;98142.81;;;8.91;53.56
45078;BME280;60508;42.622;25.416;2022-10-17T04:02:57;98137.44;;;8.91;53.14
45078;BME280;60508;42.622;25.416;2022-10-17T04:05:25;98138.47;;;8.90;52.92
45078;BME280;60508;42.622;25.416;2022-10-17T04:07:52;98140.72;;;8.87;53.30
45078;BME280;60508;42.622;25.416;2022-10-17T04:10:23;98148.13;;;8.85;53.24
45078;BME280;60508;42.622;25.416;2022-10-17T04:12:50;98146.19;;;8.72;53.61
45078;BME280;60508;42.622;25.416;2022-10-17T04:15:17;98146.72;;;8.54;53.79
45078;BME280;60508;42.622;25.416;2022-10-17T04:17:43;98162.63;;;8.62;54.19
45078;BME280;60508;42.622;25.416;2022-10-17T04:20:09;98156.66;;;8.60;54.02
45078;BME280;60508;42.622;25.416;2022-10-17T04:22:36;98163.28;;;8.64;53.96
45078;BME280;60508;42.622;25.416;2022-10-17T04:25:02;98147.88;;;8.80;53.72
45078;BME280;60508;42.622;25.416;2022-10-17T04:27:34;98148.13;;;8.85;54.10
45078;BME280;60508;42.622;25.416;2022-10-17T04:30:01;98152.88;;;8.89;53.55
45078;BME280;60508;42.622;25.416;2022-10-17T04:32:29;98161.56;;;8.91;53.96
45078;BME280;60508;42.622;25.416;2022-10-17T04:35:08;98155.41;;;9.04;53.11
45078;BME280;60508;42.622;25.416;2022-10-17T04:37:34;98171.47;;;8.98;53.02
45078;BME280;60508;42.622;25.416;2022-10-17T04:40:07;98171.97;;;8.73;53.50
45078;BME280;60508;42.622;25.416;2022-10-17T04:42:34;98176.47;;;8.66;53.52
45078;BME280;60508;42.622;25.416;2022-10-17T04:45:02;98182.19;;;8.56;53.28
45078;BME280;60508;42.622;25.416;2022-10-17T04:47:28;98185.25;;;8.53;53.00
45078;BME280;60508;42.622;25.416;2022-10-17T04:49:55;98179.75;;;8.39;53.90
45078;BME280;60508;42.622;25.416;2022-10-17T04:52:22;98180.59;;;8.40;53.71
45078;BME280;60508;42.622;25.416;2022-10-17T04:54:50;98178.81;;;8.47;53.64
45078;BME280;60508;42.622;25.416;2022-10-17T04:57:17;98190.81;;;8.51;53.35
45078;BME280;60508;42.622;25.416;2022-10-17T05:00:08;98193.34;;;8.38;53.88
45078;BME280;60508;42.622;25.416;2022-10-17T05:02:50;98209.41;;;8.38;54.79
45078;BME280;60508;42.622;25.416;2022-10-17T05:05:16;98204.69;;;8.62;54.37
45078;BME280;60508;42.622;25.416;2022-10-17T05:07:45;98210.09;;;9.03;53.12
45078;BME280;60508;42.622;25.416;2022-10-17T05:10:15;98212.69;;;8.90;53.40
45078;BME280;60508;42.622;25.416;2022-10-17T05:12:46;98215.19;;;8.91;53.38
45078;BME280;60508;42.622;25.416;2022-10-17T05:15:13;98220.00;;;9.03;53.64
45078;BME280;60508;42.622;25.416;2022-10-17T05:17:42;98223.13;;;9.13;53.81
45078;BME280;60508;42.622;25.416;2022-10-17T05:20:10;98225.84;;;9.20;53.23
45078;BME280;60508;42.622;25.416;2022-10-17T05:22:37;98226.19;;;9.52;52.98
45078;BME280;60508;42.622;25.416;2022-10-17T05:25:04;98226.06;;;9.80;55.87
45078;BME280;60508;42.622;25.416;2022-10-17T05:27:30;98237.25;;;9.90;52.16
45078;BME280;60508;42.622;25.416;2022-10-17T05:29:57;98233.47;;;9.64;54.28
45078;BME280;60508;42.622;25.416;2022-10-17T05:32:27;98242.16;;;9.80;55.18
45078;BME280;60508;42.622;25.416;2022-10-17T05:34:53;98250.69;;;10.03;54.50
45078;BME280;60508;42.622;25.416;2022-10-17T05:37:21;98244.56;;;10.36;52.18
45078;BME280;60508;42.622;25.416;2022-10-17T05:39:50;98252.63;;;10.36;52.29
45078;BME280;60508;42.622;25.416;2022-10-17T05:42:17;98254.25;;;10.24;52.63
45078;BME280;60508;42.622;25.416;2022-10-17T05:44:44;98258.19;;;10.41;52.35
45078;BME280;60508;42.622;25.416;2022-10-17T05:47:12;98256.16;;;10.57;52.66
45078;BME280;60508;42.622;25.416;2022-10-17T05:49:38;98257.78;;;10.78;51.42
45078;BME280;60508;42.622;25.416;2022-10-17T05:52:04;98262.31;;;11.04;50.84
45078;BME280;60508;42.622;25.416;2022-10-17T05:54:38;98269.50;;;11.30;50.52
45078;BME280;60508;42.622;25.416;2022-10-17T05:57:05;98272.31;;;11.56;50.47
45078;BME280;60508;42.622;25.416;2022-10-17T05:59:32;98275.28;;;11.86;49.31
45078;BME280;60508;42.622;25.416;2022-10-17T06:02:13;98278.47;;;12.15;48.81
45078;BME280;60508;42.622;25.416;2022-10-17T06:04:40;98282.25;;;12.39;48.87
45078;BME280;60508;42.622;25.416;2022-10-17T06:07:11;98286.19;;;12.68;48.37
45078;BME280;60508;42.622;25.416;2022-10-17T06:09:38;98293.22;;;12.94;46.06
45078;BME280;60508;42.622;25.416;2022-10-17T06:12:06;98291.81;;;12.92;45.31
45078;BME280;60508;42.622;25.416;2022-10-17T06:14:32;98293.78;;;12.78;46.24
45078;BME280;60508;42.622;25.416;2022-10-17T06:17:01;98296.53;;;12.71;46.07
45078;BME280;60508;42.622;25.416;2022-10-17T06:19:27;98296.38;;;12.66;47.14
45078;BME280;60508;42.622;25.416;2022-10-17T06:21:53;98300.72;;;12.92;45.79
45078;BME280;60508;42.622;25.416;2022-10-17T06:24:21;98301.25;;;13.01;45.03
45078;BME280;60508;42.622;25.416;2022-10-17T06:26:49;98305.47;;;13.15;44.33
45078;BME280;60508;42.622;25.416;2022-10-17T06:29:18;98304.00;;;13.20;44.83
45078;BME280;60508;42.622;25.416;2022-10-17T06:31:47;98308.34;;;13.21;44.64
45078;BME280;60508;42.622;25.416;2022-10-17T06:34:14;98318.91;;;13.22;44.62
45078;BME280;60508;42.622;25.416;2022-10-17T06:36:40;98309.09;;;13.28;44.36
45078;BME280;60508;42.622;25.416;2022-10-17T06:39:07;98307.72;;;13.44;44.37
45078;BME280;60508;42.622;25.416;2022-10-17T06:41:39;98309.69;;;13.55;44.21
45078;BME280;60508;42.622;25.416;2022-10-17T06:44:07;98303.38;;;13.61;43.98
45078;BME280;60508;42.622;25.416;2022-10-17T06:47:04;98313.28;;;13.86;43.48
45078;BME280;60508;42.622;25.416;2022-10-17T06:49:31;98311.88;;;14.14;43.17
45078;BME280;60508;42.622;25.416;2022-10-17T06:52:17;98309.06;;;14.51;41.15
45078;BME280;60508;42.622;25.416;2022-10-17T06:55:09;98297.41;;;14.92;39.20
45078;BME280;60508;42.622;25.416;2022-10-17T06:57:58;98307.03;;;15.24;38.11
45078;BME280;60508;42.622;25.416;2022-10-17T07:00:44;98301.63;;;15.47;38.09
45078;BME280;60508;42.622;25.416;2022-10-17T07:03:12;98303.00;;;15.62;37.75
45078;BME280;60508;42.622;25.416;2022-10-17T07:05:37;98310.53;;;15.72;36.37
45078;BME280;60508;42.622;25.416;2022-10-17T07:08:04;98309.34;;;15.91;36.63
45078;BME280;60508;42.622;25.416;2022-10-17T07:10:30;98314.22;;;16.06;36.73
45078;BME280;60508;42.622;25.416;2022-10-17T07:12:56;98316.88;;;16.30;35.43
45078;BME280;60508;42.622;25.416;2022-10-17T07:15:22;98321.66;;;16.11;35.35
45078;BME280;60508;42.622;25.416;2022-10-17T07:17:48;98324.84;;;16.08;35.56
45078;BME280;60508;42.622;25.416;2022-10-17T07:20:17;98322.47;;;16.11;34.88
45078;BME280;60508;42.622;25.416;2022-10-17T07:22:43;98335.06;;;16.46;35.50
45078;BME280;60508;42.622;25.416;2022-10-17T07:25:09;98329.00;;;16.56;34.04
45078;BME280;60508;42.622;25.416;2022-10-17T07:27:42;98326.28;;;16.27;34.38
45078;BME280;60508;42.622;25.416;2022-10-17T07:30:09;98334.75;;;16.59;34.74
45078;BME280;60508;42.622;25.416;2022-10-17T07:32:37;98332.03;;;16.42;33.53
45078;BME280;60508;42.622;25.416;2022-10-17T07:35:05;98336.78;;;15.95;34.85
45078;BME280;60508;42.622;25.416;2022-10-17T07:37:31;98340.03;;;16.37;34.40
45078;BME280;60508;42.622;25.416;2022-10-17T07:39:58;98342.34;;;16.74;34.36
45078;BME280;60508;42.622;25.416;2022-10-17T07:42:25;98340.38;;;16.70;34.11
45078;BME280;60508;42.622;25.416;2022-10-17T07:44:53;98341.56;;;17.25;34.97
45078;BME280;60508;42.622;25.416;2022-10-17T07:47:20;98346.84;;;17.53;34.37
45078;BME280;60508;42.622;25.416;2022-10-17T07:49:47;98343.94;;;17.38;32.50
45078;BME280;60508;42.622;25.416;2022-10-17T07:52:14;98341.09;;;17.67;32.53
45078;BME280;60508;42.622;25.416;2022-10-17T07:54:40;98340.34;;;18.16;32.57
45078;BME280;60508;42.622;25.416;2022-10-17T07:57:06;98341.34;;;17.87;31.92
45078;BME280;60508;42.622;25.416;2022-10-17T07:59:33;98344.94;;;18.37;32.04
45078;BME280;60508;42.622;25.416;2022-10-17T08:01:59;98340.00;;;18.34;32.01
45078;BME280;60508;42.622;25.416;2022-10-17T08:04:26;98339.50;;;18.37;31.07
45078;BME280;60508;42.622;25.416;2022-10-17T08:06:52;98340.38;;;18.70;29.81
45078;BME280;60508;42.622;25.416;2022-10-17T08:09:18;98330.16;;;19.15;30.41
45078;BME280;60508;42.622;25.416;2022-10-17T08:11:45;98329.78;;;19.01;30.42
45078;BME280;60508;42.622;25.416;2022-10-17T08:14:12;98336.00;;;18.69;29.23
45078;BME280;60508;42.622;25.416;2022-10-17T08:16:39;98332.31;;;18.80;29.32
45078;BME280;60508;42.622;25.416;2022-10-17T08:19:05;98335.41;;;19.22;28.08
45078;BME280;60508;42.622;25.416;2022-10-17T08:21:34;98335.94;;;19.71;28.91
45078;BME280;60508;42.622;25.416;2022-10-17T08:24:00;98329.56;;;19.98;27.77
45078;BME280;60508;42.622;25.416;2022-10-17T08:26:28;98330.31;;;21.34;26.29
45078;BME280;60508;42.622;25.416;2022-10-17T08:28:54;98334.19;;;22.29;25.08
45078;BME280;60508;42.622;25.416;2022-10-17T08:31:20;98335.13;;;22.93;24.00
45078;BME280;60508;42.622;25.416;2022-10-17T08:33:47;98327.91;;;23.37;23.19
45078;BME280;60508;42.622;25.416;2022-10-17T08:36:16;98323.34;;;23.81;22.59
45078;BME280;60508;42.622;25.416;2022-10-17T08:38:43;98328.19;;;24.56;21.73
45078;BME280;60508;42.622;25.416;2022-10-17T08:41:21;98333.28;;;25.34;21.13
45078;BME280;60508;42.622;25.416;2022-10-17T08:44:09;98327.28;;;27.47;19.30
45078;BME280;60508;42.622;25.416;2022-10-17T08:46:41;98335.25;;;29.90;17.41
45078;BME280;60508;42.622;25.416;2022-10-17T08:49:14;98336.69;;;30.26;16.64
45078;BME280;60508;42.622;25.416;2022-10-17T08:51:56;98340.16;;;31.99;16.00
45078;BME280;60508;42.622;25.416;2022-10-17T08:54:42;98338.91;;;33.15;15.91
45078;BME280;60508;42.622;25.416;2022-10-17T08:57:15;98340.88;;;33.87;15.51
45078;BME280;60508;42.622;25.416;2022-10-17T08:59:42;98345.66;;;34.73;14.60
45078;BME280;60508;42.622;25.416;2022-10-17T09:10:14;98345.69;;;36.51;13.09
45078;BME280;60508;42.622;25.416;2022-10-17T09:18:22;98348.09;;;40.83;10.34
45078;BME280;60508;42.622;25.416;2022-10-17T09:21:11;98346.50;;;41.59;9.54
45078;BME280;60508;42.622;25.416;2022-10-17T09:23:51;98340.44;;;39.11;11.79
45078;BME280;60508;42.622;25.416;2022-10-17T09:26:19;98345.22;;;41.71;10.00
45078;BME280;60508;42.622;25.416;2022-10-17T09:28:52;98339.59;;;42.93;9.17
45078;BME280;60508;42.622;25.416;2022-10-17T09:31:22;98346.03;;;40.98;9.88
45078;BME280;60508;42.622;25.416;2022-10-17T09:33:51;98338.34;;;41.02;10.21
45078;BME280;60508;42.622;25.416;2022-10-17T09:36:22;98335.22;;;41.59;9.88
45078;BME280;60508;42.622;25.416;2022-10-17T09:38:52;98326.84;;;40.64;10.93
45078;BME280;60508;42.622;25.416;2022-10-17T09:41:20;98331.69;;;39.44;11.56
45078;BME280;60508;42.622;25.416;2022-10-17T09:43:48;98329.59;;;38.35;11.41
45078;BME280;60508;42.622;25.416;2022-10-17T09:46:29;98329.06;;;38.85;11.61
45078;BME280;60508;42.622;25.416;2022-10-17T09:49:04;98320.25;;;38.87;11.29
45078;BME280;60508;42.622;25.416;2022-10-17T09:51:31;98314.75;;;39.08;11.68
45078;BME280;60508;42.622;25.416;2022-10-17T09:54:04;98313.50;;;40.75;10.33
45078;BME280;60508;42.622;25.416;2022-10-17T09:57:26;98317.31;;;41.21;10.27
45078;BME280;60508;42.622;25.416;2022-10-17T10:00:00;98308.25;;;41.55;9.72
45078;BME280;60508;42.622;25.416;2022-10-17T10:02:28;98314.44;;;40.25;10.49
45078;BME280;60508;42.622;25.416;2022-10-17T10:05:00;98316.47;;;39.85;10.54
45078;BME280;60508;42.622;25.416;2022-10-17T10:07:29;98307.50;;;37.75;12.03
45078;BME280;60508;42.622;25.416;2022-10-17T10:09:56;98307.88;;;39.06;11.16
45078;BME280;60508;42.622;25.416;2022-10-17T10:12:25;98304.19;;;37.66;11.79
45078;BME280;60508;42.622;25.416;2022-10-17T10:14:51;98299.00;;;38.16;11.71
45078;BME280;60508;42.622;25.416;2022-10-17T10:17:32;98291.34;;;38.83;11.33
45078;BME280;60508;42.622;25.416;2022-10-17T10:20:00;98296.28;;;39.18;11.09
45078;BME280;60508;42.622;25.416;2022-10-17T10:22:26;98278.34;;;37.87;11.74
45078;BME280;60508;42.622;25.416;2022-10-17T10:25:15;98279.78;;;34.33;14.08
45078;BME280;60508;42.622;25.416;2022-10-17T10:27:43;98274.31;;;36.11;13.55
45078;BME280;60508;42.622;25.416;2022-10-17T10:30:28;98277.16;;;36.41;12.73
45078;BME280;60508;42.622;25.416;2022-10-17T10:32:57;98280.81;;;37.51;11.85
45078;BME280;60508;42.622;25.416;2022-10-17T10:35:31;98280.28;;;36.97;11.68
45078;BME280;60508;42.622;25.416;2022-10-17T10:38:01;98274.06;;;36.80;11.57
45078;BME280;60508;42.622;25.416;2022-10-17T10:41:09;98270.84;;;36.78;11.81
45078;BME280;60508;42.622;25.416;2022-10-17T10:43:30;98273.06;;;35.81;12.28
45078;BME280;60508;42.622;25.416;2022-10-17T10:46:00;98265.03;;;34.71;12.78
45078;BME280;60508;42.622;25.416;2022-10-17T10:48:33;98260.63;;;34.15;13.11
45078;BME280;60508;42.622;25.416;2022-10-17T10:51:13;98261.47;;;35.79;12.07
45078;BME280;60508;42.622;25.416;2022-10-17T10:56:36;98255.81;;;36.03;12.08
45078;BME280;60508;42.622;25.416;2022-10-17T10:59:19;98252.09;;;35.45;12.41
45078;BME280;60508;42.622;25.416;2022-10-17T11:10:20;98222.16;;;31.96;15.73
45078;BME280;60508;42.622;25.416;2022-10-17T11:12:53;98234.19;;;30.59;16.92
45078;BME280;60508;42.622;25.416;2022-10-17T11:18:10;98236.84;;;30.89;16.43
45078;BME280;60508;42.622;25.416;2022-10-17T11:21:00;98230.34;;;30.85;16.46
45078;BME280;60508;42.622;25.416;2022-10-17T11:26:21;98220.09;;;30.22;16.55
45078;BME280;60508;42.622;25.416;2022-10-17T11:28:56;98223.97;;;30.09;16.87
45078;BME280;60508;42.622;25.416;2022-10-17T11:31:26;98222.06;;;29.41;17.15
45078;BME280;60508;42.622;25.416;2022-10-17T11:34:11;98210.53;;;28.22;18.47
45078;BME280;60508;42.622;25.416;2022-10-17T11:36:45;98209.69;;;28.39;18.46
45078;BME280;60508;42.622;25.416;2022-10-17T11:39:43;98200.78;;;28.68;17.93
45078;BME280;60508;42.622;25.416;2022-10-17T11:42:50;98205.47;;;28.24;18.33
45078;BME280;60508;42.622;25.416;2022-10-17T11:45:21;98205.31;;;28.03;18.30
45078;BME280;60508;42.622;25.416;2022-10-17T11:47:52;98186.22;;;27.66;18.56
45078;BME280;60508;42.622;25.416;2022-10-17T11:50:37;98190.34;;;28.30;18.57
45078;BME280;60508;42.622;25.416;2022-10-17T11:55:34;98187.38;;;27.92;18.38
45078;BME280;60508;42.622;25.416;2022-10-17T12:03:47;98194.13;;;28.34;18.52
45078;BME280;60508;42.622;25.416;2022-10-17T12:08:58;98187.84;;;28.90;17.74
45078;BME280;60508;42.622;25.416;2022-10-17T12:17:00;98189.69;;;29.63;17.18
45078;BME280;60508;42.622;25.416;2022-10-17T12:19:29;98191.66;;;29.54;17.32
45078;BME280;60508;42.622;25.416;2022-10-17T12:22:20;98182.63;;;29.44;17.23
45078;BME280;60508;42.622;25.416;2022-10-17T12:24:59;98181.84;;;29.35;17.18
45078;BME280;60508;42.622;25.416;2022-10-17T12:27:43;98181.09;;;29.17;17.83
45078;BME280;60508;42.622;25.416;2022-10-17T12:33:04;98178.19;;;30.24;16.58
45078;BME280;60508;42.622;25.416;2022-10-17T12:35:33;98182.88;;;29.60;16.86
45078;BME280;60508;42.622;25.416;2022-10-17T12:45:52;98180.56;;;28.76;17.66
45078;BME280;60508;42.622;25.416;2022-10-17T12:53:42;98193.69;;;29.74;17.19
45078;BME280;60508;42.622;25.416;2022-10-17T12:56:18;98189.25;;;29.82;17.09
45078;BME280;60508;42.622;25.416;2022-10-17T12:58:48;98190.69;;;29.58;17.26
45078;BME280;60508;42.622;25.416;2022-10-17T13:01:26;98181.06;;;29.26;18.10
45078;BME280;60508;42.622;25.416;2022-10-17T13:03:54;98186.44;;;28.40;18.50
45078;BME280;60508;42.622;25.416;2022-10-17T13:06:27;98178.91;;;26.90;20.37
45078;BME280;60508;42.622;25.416;2022-10-17T13:09:00;98181.84;;;27.25;19.64
45078;BME280;60508;42.622;25.416;2022-10-17T13:11:29;98181.16;;;27.51;19.08
45078;BME280;60508;42.622;25.416;2022-10-17T13:13:57;98184.50;;;28.32;18.78
45078;BME280;60508;42.622;25.416;2022-10-17T13:16:31;98186.25;;;27.93;18.64
45078;BME280;60508;42.622;25.416;2022-10-17T13:18:58;98185.66;;;28.39;18.28
45078;BME280;60508;42.622;25.416;2022-10-17T13:21:25;98181.56;;;28.37;18.62
45078;BME280;60508;42.622;25.416;2022-10-17T13:23:51;98184.16;;;28.77;18.40
45078;BME280;60508;42.622;25.416;2022-10-17T13:26:25;98189.09;;;29.48;17.56
45078;BME280;60508;42.622;25.416;2022-10-17T13:29:12;98182.38;;;29.28;17.48
45078;BME280;60508;42.622;25.416;2022-10-17T13:31:43;98183.19;;;28.55;18.01
45078;BME280;60508;42.622;25.416;2022-10-17T13:34:17;98183.69;;;28.31;18.18
45078;BME280;60508;42.622;25.416;2022-10-17T13:36:47;98179.44;;;27.81;18.53
45078;BME280;60508;42.622;25.416;2022-10-17T13:39:17;98179.94;;;27.92;18.56
45078;BME280;60508;42.622;25.416;2022-10-17T13:41:45;98189.19;;;28.66;18.17
45078;BME280;60508;42.622;25.416;2022-10-17T13:44:23;98185.00;;;28.16;18.25
45078;BME280;60508;42.622;25.416;2022-10-17T13:46:50;98171.47;;;28.67;18.44
45078;BME280;60508;42.622;25.416;2022-10-17T13:51:45;98177.78;;;28.85;17.87
45078;BME280;60508;42.622;25.416;2022-10-17T13:56:57;98168.69;;;27.88;18.66
45078;BME280;60508;42.622;25.416;2022-10-17T13:59:35;98178.97;;;28.58;18.60
45078;BME280;60508;42.622;25.416;2022-10-17T14:02:03;98168.53;;;28.72;18.53
45078;BME280;60508;42.622;25.416;2022-10-17T14:04:30;98175.13;;;28.98;18.30
45078;BME280;60508;42.622;25.416;2022-10-17T14:06:56;98174.66;;;28.95;17.87
45078;BME280;60508;42.622;25.416;2022-10-17T14:09:24;98179.25;;;28.56;18.27
45078;BME280;60508;42.622;25.416;2022-10-17T14:12:10;98178.16;;;28.49;18.34
45078;BME280;60508;42.622;25.416;2022-10-17T14:14:47;98174.53;;;28.83;18.51
45078;BME280;60508;42.622;25.416;2022-10-17T14:17:26;98178.84;;;29.02;18.14
45078;BME280;60508;42.622;25.416;2022-10-17T14:19:55;98173.97;;;29.07;18.19
45078;BME280;60508;42.622;25.416;2022-10-17T14:24:49;98179.09;;;28.88;18.54
45078;BME280;60508;42.622;25.416;2022-10-17T14:27:53;98171.47;;;28.67;18.36
45078;BME280;60508;42.622;25.416;2022-10-17T14:30:33;98170.19;;;28.38;19.21
45078;BME280;60508;42.622;25.416;2022-10-17T14:33:04;98177.84;;;28.41;19.10
45078;BME280;60508;42.622;25.416;2022-10-17T14:35:30;98173.91;;;27.90;19.17
45078;BME280;60508;42.622;25.416;2022-10-17T14:37:59;98179.50;;;27.50;19.92
45078;BME280;60508;42.622;25.416;2022-10-17T14:40:25;98180.06;;;27.78;19.75
45078;BME280;60508;42.622;25.416;2022-10-17T14:42:56;98179.81;;;27.97;19.76
45078;BME280;60508;42.622;25.416;2022-10-17T14:45:27;98178.47;;;27.86;19.50
45078;BME280;60508;42.622;25.416;2022-10-17T14:48:01;98182.16;;;27.64;20.15
45078;BME280;60508;42.622;25.416;2022-10-17T14:50:30;98184.91;;;27.55;20.03
45078;BME280;60508;42.622;25.416;2022-10-17T14:53:05;98182.09;;;27.38;20.17
45078;BME280;60508;42.622;25.416;2022-10-17T14:55:33;98187.41;;;26.94;20.60
45078;BME280;60508;42.622;25.416;2022-10-17T14:58:00;98184.03;;;27.06;20.66
45078;BME280;60508;42.622;25.416;2022-10-17T15:00:27;98181.44;;;27.09;20.93